Time;durP1;ratioP1;P1;durP2;ratioP2;P2;SDS_P1;SDS_P2;PMS_P1;PMS_P2;Temp;Humidity;BMP_temperature;BMP_pressure;BME280_temperature;BME280_humidity;BME280_pressure;Samples;Min_cycle;Max_cycle;Signal;HPM_P1;HPM_P2
2022/03/31 00:01:04;;;;;;;8.48;7.57;;;3.80;1.00;;;;;;4928448;28;20253;-78
2022/03/31 00:03:37;;;;;;;7.00;6.03;;;3.80;1.00;;;;;;4926211;28;20717;-78
2022/03/31 00:06:04;;;;;;;11.43;7.18;;;3.80;1.00;;;;;;4929360;28;20442;-78
2022/03/31 00:08:31;;;;;;;8.27;5.88;;;3.70;1.00;;;;;;4928243;28;20246;-78
2022/03/31 00:10:59;;;;;;;7.25;6.55;;;3.70;1.00;;;;;;4925994;28;20250;-78
2022/03/31 00:13:31;;;;;;;7.50;5.72;;;3.70;1.00;;;;;;4923576;28;20408;-77
2022/03/31 00:16:05;;;;;;;8.70;6.57;;;3.60;1.00;;;;;;4930599;28;20241;-78
2022/03/31 00:18:34;;;;;;;7.05;6.32;;;3.60;1.00;;;;;;4927854;28;20265;-79
2022/03/31 00:21:04;;;;;;;8.48;6.38;;;3.60;1.00;;;;;;4925869;28;20225;-78
2022/03/31 00:23:31;;;;;;;7.22;6.35;;;3.60;1.00;;;;;;4924044;28;20237;-78
2022/03/31 00:26:00;;;;;;;6.65;6.05;;;3.60;1.00;;;;;;4922485;28;21582;-79
2022/03/31 00:28:27;;;;;;;9.50;6.53;;;3.60;1.00;;;;;;4925303;28;20236;-79
2022/03/31 00:30:54;;;;;;;7.78;5.97;;;3.60;1.00;;;;;;4919483;28;20241;-79
2022/03/31 00:33:22;;;;;;;6.45;5.60;;;3.50;1.00;;;;;;4938745;28;20229;-78
2022/03/31 00:35:54;;;;;;;9.82;6.68;;;3.50;1.00;;;;;;4939864;28;20253;-78
2022/03/31 00:38:23;;;;;;;7.20;6.25;;;3.50;1.00;;;;;;4934809;28;20244;-78
2022/03/31 00:40:54;;;;;;;7.45;5.93;;;3.40;1.00;;;;;;4933748;28;20283;-77
2022/03/31 00:43:20;;;;;;;8.18;6.43;;;3.40;1.00;;;;;;4933965;28;20237;-77
2022/03/31 00:45:56;;;;;;;8.15;7.15;;;3.30;1.00;;;;;;4934737;28;20230;-77
2022/03/31 00:48:24;;;;;;;8.70;6.50;;;3.30;1.00;;;;;;4935103;28;20246;-77
2022/03/31 00:50:53;;;;;;;7.40;6.30;;;3.30;1.00;;;;;;4939140;28;20237;-78
2022/03/31 00:53:20;;;;;;;6.63;5.85;;;3.20;1.00;;;;;;4941668;28;20269;-76
2022/03/31 00:55:49;;;;;;;6.93;5.95;;;3.20;1.00;;;;;;4937563;28;20242;-77
2022/03/31 00:58:16;;;;;;;11.27;7.32;;;3.20;1.00;;;;;;4939537;28;20238;-79
2022/03/31 01:00:43;;;;;;;8.32;5.85;;;3.10;1.00;;;;;;4930576;28;20249;-78
2022/03/31 01:03:19;;;;;;;7.43;6.63;;;3.00;1.00;;;;;;4937512;28;20232;-77
2022/03/31 01:05:51;;;;;;;11.77;6.20;;;3.00;1.00;;;;;;4944061;28;20306;-78
2022/03/31 01:08:21;;;;;;;9.20;6.95;;;2.90;1.00;;;;;;4945792;28;20241;-77
2022/03/31 01:10:54;;;;;;;8.05;5.47;;;2.90;1.00;;;;;;4933477;28;20309;-77
2022/03/31 01:13:20;;;;;;;9.55;6.82;;;2.90;1.00;;;;;;4940567;28;20251;-78
2022/03/31 01:15:47;;;;;;;6.82;6.10;;;2.80;1.00;;;;;;4939360;28;20419;-78
2022/03/31 01:18:15;;;;;;;7.85;6.05;;;2.70;1.00;;;;;;4938515;28;20415;-78
2022/03/31 01:20:42;;;;;;;6.40;5.40;;;2.70;1.00;;;;;;4938147;28;20241;-77
2022/03/31 01:23:15;;;;;;;7.40;6.53;;;2.60;1.00;;;;;;4942101;28;20263;-77
2022/03/31 01:25:42;;;;;;;10.07;6.70;;;2.60;1.00;;;;;;4942718;28;20245;-76
2022/03/31 01:28:13;;;;;;;6.80;6.07;;;2.60;1.00;;;;;;4935961;28;20241;-77
2022/03/31 01:30:39;;;;;;;8.70;7.15;;;2.60;1.00;;;;;;4935286;28;20241;-78
2022/03/31 01:33:06;;;;;;;8.35;6.18;;;2.50;1.00;;;;;;4932244;28;20690;-78
2022/03/31 01:35:34;;;;;;;8.82;5.30;;;2.50;1.00;;;;;;4930156;28;20238;-78
2022/03/31 01:38:01;;;;;;;7.10;5.72;;;2.50;1.00;;;;;;4925178;28;20242;-78
2022/03/31 01:40:37;;;;;;;8.07;6.05;;;2.40;1.00;;;;;;4934092;28;20311;-78
2022/03/31 01:43:04;;;;;;;6.32;5.38;;;2.40;1.00;;;;;;4939348;28;20245;-78
2022/03/31 01:45:32;;;;;;;7.53;5.35;;;2.40;1.00;;;;;;4938868;28;20261;-78
2022/03/31 01:48:01;;;;;;;7.25;5.53;;;2.40;1.00;;;;;;4939772;28;20269;-77
2022/03/31 01:50:29;;;;;;;7.13;5.72;;;2.40;1.00;;;;;;4949466;28;20316;-78
2022/03/31 01:52:56;;;;;;;7.00;5.10;;;2.40;1.00;;;;;;4941078;28;20238;-77
2022/03/31 01:55:23;;;;;;;8.77;5.75;;;2.30;1.00;;;;;;4941895;28;20308;-77
2022/03/31 01:57:56;;;;;;;6.40;5.55;;;2.30;1.00;;;;;;4942517;28;20256;-78
2022/03/31 02:00:23;;;;;;;7.72;6.30;;;2.30;1.00;;;;;;4941385;28;20317;-76
2022/03/31 02:02:53;;;;;;;7.18;5.57;;;2.30;1.00;;;;;;4936298;28;20238;-76
2022/03/31 02:05:20;;;;;;;7.15;5.43;;;2.20;1.00;;;;;;4943243;28;20297;-76
2022/03/31 02:07:47;;;;;;;6.55;5.43;;;2.20;1.00;;;;;;4934587;28;20257;-77
2022/03/31 02:10:15;;;;;;;9.45;5.97;;;2.20;1.00;;;;;;4936982;28;20237;-77
2022/03/31 02:12:42;;;;;;;6.25;4.80;;;2.10;1.00;;;;;;4942156;28;20242;-77
2022/03/31 02:15:14;;;;;;;8.70;5.38;;;2.10;1.00;;;;;;4940079;28;20242;-76
2022/03/31 02:17:44;;;;;;;6.63;4.88;;;2.10;1.00;;;;;;4936885;28;21568;-76
2022/03/31 02:20:14;;;;;;;8.35;5.00;;;2.10;1.00;;;;;;4937716;28;20308;-77
2022/03/31 02:22:44;;;;;;;7.82;5.50;;;2.00;1.00;;;;;;4927544;28;20249;-77
2022/03/31 02:25:14;;;;;;;6.72;5.68;;;2.00;1.00;;;;;;4926226;28;20678;-76
2022/03/31 02:27:43;;;;;;;8.50;5.47;;;1.90;1.00;;;;;;4930193;28;20241;-77
2022/03/31 02:30:14;;;;;;;6.85;5.00;;;1.90;1.00;;;;;;4924348;28;20241;-77
2022/03/31 02:32:43;;;;;;;7.80;5.07;;;1.90;1.00;;;;;;4927458;28;20230;-76
2022/03/31 02:35:11;;;;;;;6.15;4.80;;;1.90;1.00;;;;;;4925388;28;20250;-76
2022/03/31 02:37:37;;;;;;;6.65;4.85;;;1.80;1.00;;;;;;4924911;28;20250;-77
2022/03/31 02:40:07;;;;;;;7.95;5.25;;;1.80;1.00;;;;;;4926060;28;20229;-77
2022/03/31 02:42:35;;;;;;;7.65;5.88;;;1.70;1.00;;;;;;4924771;28;20250;-77
2022/03/31 02:45:02;;;;;;;6.57;4.80;;;1.70;1.00;;;;;;4922960;28;20250;-78
2022/03/31 02:47:35;;;;;;;8.68;4.93;;;1.70;1.00;;;;;;4921691;28;20261;-77
2022/03/31 02:50:02;;;;;;;6.80;4.97;;;1.70;1.00;;;;;;4925802;28;20234;-79
2022/03/31 02:55:24;;;;;;;5.70;5.10;;;1.60;1.00;;;;;;4924774;28;20253;-77
2022/03/31 02:55:25;;;;;;;8.02;5.03;;;1.60;1.00;;;;;;4931531;28;20330;-78
2022/03/31 02:57:52;;;;;;;6.82;4.88;;;1.50;1.00;;;;;;4926295;28;20297;-77
2022/03/31 03:00:23;;;;;;;6.13;4.90;;;1.50;1.00;;;;;;4928842;28;20277;-76
2022/03/31 03:02:54;;;;;;;8.02;5.18;;;1.50;1.00;;;;;;4921930;28;20249;-78
2022/03/31 03:05:25;;;;;;;7.32;4.80;;;1.50;1.00;;;;;;4927342;28;20233;-77
2022/03/31 03:07:58;;;;;;;8.00;5.00;;;1.50;1.00;;;;;;4923858;28;20353;-77
2022/03/31 03:10:25;;;;;;;6.38;4.68;;;1.50;1.00;;;;;;4931083;28;20233;-77
2022/03/31 03:12:52;;;;;;;8.10;4.88;;;1.50;1.00;;;;;;4932444;28;20829;-76
2022/03/31 03:15:22;;;;;;;6.95;5.97;;;1.50;1.00;;;;;;4924989;28;20246;-77
2022/03/31 03:17:48;;;;;;;9.43;4.75;;;1.50;1.00;;;;;;4927955;28;20243;-77
2022/03/31 03:20:17;;;;;;;5.93;5.32;;;1.50;1.00;;;;;;4926206;28;21169;-77
2022/03/31 03:22:47;;;;;;;7.05;4.90;;;1.40;1.00;;;;;;4926143;28;21011;-78
2022/03/31 03:25:17;;;;;;;5.30;4.47;;;1.30;1.00;;;;;;4931143;28;20238;-78
2022/03/31 03:27:45;;;;;;;5.00;4.10;;;1.30;1.00;;;;;;4925455;28;20230;-77
2022/03/31 03:30:17;;;;;;;6.75;5.60;;;1.20;1.00;;;;;;4924812;28;20234;-78
2022/03/31 03:32:46;;;;;;;9.40;5.35;;;1.20;1.00;;;;;;4926055;28;20313;-79
2022/03/31 03:35:17;;;;;;;6.55;4.78;;;1.20;1.00;;;;;;4916911;28;20242;-78
2022/03/31 03:37:46;;;;;;;7.22;4.82;;;1.20;1.00;;;;;;4928370;28;20241;-78
2022/03/31 03:40:19;;;;;;;8.80;5.32;;;1.20;1.00;;;;;;4928685;28;21182;-78
2022/03/31 03:42:55;;;;;;;8.85;4.82;;;1.10;1.00;;;;;;4918680;28;20241;-77
2022/03/31 03:45:26;;;;;;;7.82;5.00;;;1.20;1.00;;;;;;4925683;28;20804;-77
2022/03/31 03:47:55;;;;;;;5.38;4.65;;;1.20;1.00;;;;;;4924045;28;20241;-77
2022/03/31 03:50:26;;;;;;;5.63;3.78;;;1.10;1.00;;;;;;4926665;28;20275;-77
2022/03/31 03:52:53;;;;;;;8.35;4.32;;;1.10;1.00;;;;;;4922393;28;20254;-79
2022/03/31 03:55:23;;;;;;;4.47;4.07;;;1.00;1.00;;;;;;4927230;28;20296;-76
2022/03/31 03:57:54;;;;;;;6.15;4.60;;;1.00;1.00;;;;;;4922290;28;20745;-77
2022/03/31 04:00:25;;;;;;;7.85;4.45;;;1.00;1.00;;;;;;4919429;28;20233;-77
2022/03/31 04:02:55;;;;;;;9.20;5.00;;;1.00;1.00;;;;;;4918145;28;20320;-78
2022/03/31 04:05:25;;;;;;;4.65;4.07;;;0.90;1.00;;;;;;4917833;28;20484;-78
2022/03/31 04:07:59;;;;;;;5.25;3.80;;;0.90;1.00;;;;;;4924513;28;20250;-75
2022/03/31 04:10:28;;;;;;;7.32;4.63;;;0.90;1.00;;;;;;4922541;28;20245;-75
2022/03/31 04:12:55;;;;;;;6.07;5.03;;;0.90;1.00;;;;;;4918685;28;20234;-76
2022/03/31 04:15:25;;;;;;;6.85;5.05;;;0.90;1.00;;;;;;4923905;28;20229;-77
2022/03/31 04:17:55;;;;;;;7.60;4.32;;;0.80;1.00;;;;;;4913062;28;20245;-76
2022/03/31 04:20:22;;;;;;;8.00;4.63;;;0.80;1.00;;;;;;4921828;28;20625;-75
2022/03/31 04:22:48;;;;;;;8.60;4.25;;;0.80;1.00;;;;;;4921138;28;20238;-75
2022/03/31 04:25:17;;;;;;;7.05;4.13;;;0.80;1.00;;;;;;4925647;28;20253;-76
2022/03/31 04:27:44;;;;;;;5.88;4.70;;;0.70;1.00;;;;;;4937167;28;20241;-76
2022/03/31 04:30:20;;;;;;;6.53;3.83;;;0.70;1.00;;;;;;4932761;28;20278;-75
2022/03/31 04:32:48;;;;;;;6.65;4.90;;;0.60;1.00;;;;;;4932126;28;20328;-74
2022/03/31 04:35:16;;;;;;;6.22;4.20;;;0.60;1.00;;;;;;4933159;28;20301;-74
2022/03/31 04:37:43;;;;;;;5.22;4.45;;;0.60;1.00;;;;;;4928905;28;20237;-74
2022/03/31 04:40:15;;;;;;;8.50;4.43;;;0.60;1.00;;;;;;4932253;28;20252;-74
2022/03/31 04:42:43;;;;;;;6.85;4.05;;;0.60;1.00;;;;;;4930044;28;20244;-77
2022/03/31 04:45:18;;;;;;;6.90;4.95;;;0.60;1.00;;;;;;4933436;28;20753;-75
2022/03/31 04:47:44;;;;;;;6.60;3.65;;;0.60;1.00;;;;;;4933565;28;21056;-76
2022/03/31 04:50:15;;;;;;;7.38;3.63;;;0.60;1.00;;;;;;4922657;28;20285;-75
2022/03/31 04:52:42;;;;;;;9.45;4.75;;;0.50;1.00;;;;;;4923965;28;20245;-75
2022/03/31 04:55:14;;;;;;;6.30;4.55;;;0.50;1.00;;;;;;4934859;28;20265;-76
2022/03/31 04:57:43;;;;;;;4.72;3.95;;;0.60;1.00;;;;;;4937215;28;20273;-75
2022/03/31 05:00:11;;;;;;;5.60;3.88;;;0.50;1.00;;;;;;4932847;28;20758;-77
2022/03/31 05:02:38;;;;;;;4.50;3.42;;;0.50;1.00;;;;;;4923882;28;20242;-75
2022/03/31 05:05:05;;;;;;;5.65;3.50;;;0.50;1.00;;;;;;4936806;28;20244;-77
2022/03/31 05:07:34;;;;;;;5.57;3.30;;;0.50;1.00;;;;;;4925077;28;20290;-76
2022/03/31 05:10:01;;;;;;;7.00;4.10;;;0.50;1.00;;;;;;4927085;28;20280;-75
2022/03/31 05:12:27;;;;;;;7.95;6.30;;;0.50;1.00;;;;;;4930629;28;20285;-76
2022/03/31 05:14:56;;;;;;;8.07;4.80;;;0.60;1.00;;;;;;4924228;28;20257;-78
2022/03/31 05:17:22;;;;;;;5.80;3.85;;;0.60;1.00;;;;;;4923310;28;21071;-76
2022/03/31 05:19:49;;;;;;;6.32;4.18;;;0.60;1.00;;;;;;4922330;28;20261;-76
2022/03/31 05:22:16;;;;;;;5.47;3.50;;;0.60;1.00;;;;;;4927874;28;24965;-76
2022/03/31 05:24:42;;;;;;;5.45;3.83;;;0.70;1.00;;;;;;4920381;28;20334;-76
2022/03/31 05:27:11;;;;;;;7.78;4.40;;;0.70;1.00;;;;;;4924377;28;20348;-77
2022/03/31 05:29:37;;;;;;;6.50;4.53;;;0.80;1.00;;;;;;4926938;28;20352;-76
2022/03/31 05:32:07;;;;;;;6.07;4.00;;;0.80;1.00;;;;;;4926676;28;20333;-77
2022/03/31 05:34:36;;;;;;;10.00;4.35;;;0.70;1.00;;;;;;4920844;28;20297;-78
2022/03/31 05:37:05;;;;;;;10.57;5.15;;;0.70;1.00;;;;;;4915827;28;21319;-77
2022/03/31 05:39:37;;;;;;;5.05;4.03;;;0.80;1.00;;;;;;4924548;28;20226;-76
2022/03/31 05:42:05;;;;;;;9.65;4.35;;;0.90;1.00;;;;;;4927322;28;20254;-76
2022/03/31 05:44:35;;;;;;;10.32;4.50;;;0.90;1.00;;;;;;4927445;28;20257;-76
2022/03/31 05:47:02;;;;;;;10.75;4.25;;;0.90;1.00;;;;;;4922042;28;20256;-78
2022/03/31 05:49:53;;;;;;;6.22;4.25;;;0.80;1.00;;;;;;4927677;28;20383;-79
2022/03/31 05:52:27;;;;;;;9.75;4.60;;;0.80;1.00;;;;;;4931084;23;20314;-78
2022/03/31 05:54:57;;;;;;;6.82;4.55;;;0.90;1.00;;;;;;4927987;28;20237;-79
2022/03/31 05:57:28;;;;;;;6.80;4.00;;;0.90;1.00;;;;;;4911701;28;20443;-76
2022/03/31 05:59:58;;;;;;;7.18;4.63;;;0.90;1.00;;;;;;4923161;28;20241;-76
2022/03/31 06:02:25;;;;;;;6.43;5.03;;;1.00;1.00;;;;;;4918505;28;21062;-76
2022/03/31 06:04:57;;;;;;;5.60;4.40;;;1.00;1.00;;;;;;4927327;28;20239;-74
2022/03/31 06:07:24;;;;;;;5.13;4.07;;;1.10;1.00;;;;;;4907446;28;20248;-74
2022/03/31 06:09:57;;;;;;;6.47;4.40;;;1.10;1.00;;;;;;4905990;28;20242;-75
2022/03/31 06:12:24;;;;;;;10.60;5.22;;;1.10;1.00;;;;;;4920901;28;20218;-74
2022/03/31 06:15:09;;;;;;;5.85;3.70;;;1.20;1.00;;;;;;4914053;28;20270;-79
2022/03/31 06:18:15;;;;;;;;;;;;;;;;;;;;;
2022/03/31 06:23:37;;;;;;;6.07;4.03;;;1.20;1.00;;;;;;4943621;28;20236;-77
2022/03/31 06:26:39;;;;;;;8.23;5.88;;;1.30;1.00;;;;;;4915963;28;20245;-83
2022/03/31 06:32:45;;;;;;;8.25;4.90;;;1.40;1.00;;;;;;4828516;29;20246;-78
2022/03/31 06:35:43;;;;;;;5.20;4.25;;;1.40;1.00;;;;;;4894908;28;21456;-75
2022/03/31 06:41:55;;;;;;;7.50;4.45;;;1.40;1.00;;;;;;4896570;23;20240;-77
2022/03/31 06:44:22;;;;;;;10.60;5.35;;;1.50;1.00;;;;;;4941126;28;20248;-78
2022/03/31 06:46:49;;;;;;;8.30;5.38;;;1.60;1.00;;;;;;4944667;28;20259;-78
2022/03/31 06:49:20;;;;;;;9.90;4.75;;;1.70;1.00;;;;;;4941053;28;20235;-77
2022/03/31 06:51:49;;;;;;;6.70;4.65;;;1.70;1.00;;;;;;4944042;28;20264;-78
2022/03/31 06:54:27;;;;;;;5.78;4.28;;;1.70;1.00;;;;;;4940059;28;20283;-78
2022/03/31 06:56:58;;;;;;;5.90;4.07;;;1.80;1.00;;;;;;4944566;28;20241;-77
2022/03/31 07:02:18;;;;;;;5.82;4.60;;;1.80;1.00;;;;;;4951634;28;20336;-77
2022/03/31 07:04:47;;;;;;;5.07;3.80;;;2.00;1.00;;;;;;4953007;28;20388;-77
2022/03/31 07:07:19;;;;;;;9.70;4.18;;;2.10;1.00;;;;;;4961750;28;20388;-76
2022/03/31 07:09:47;;;;;;;7.93;4.10;;;2.10;1.00;;;;;;4958743;28;20237;-77
2022/03/31 07:12:17;;;;;;;8.05;4.90;;;2.30;1.00;;;;;;4956658;28;20375;-77
2022/03/31 07:14:44;;;;;;;8.85;4.85;;;2.40;1.00;;;;;;4956292;28;20247;-77
2022/03/31 07:17:22;;;;;;;5.45;3.80;;;2.60;1.00;;;;;;4956081;28;20383;-76
2022/03/31 07:19:49;;;;;;;5.65;3.80;;;2.60;1.00;;;;;;4953769;28;20976;-78
2022/03/31 07:22:16;;;;;;;12.55;4.72;;;2.70;1.00;;;;;;4991406;23;20251;-77
2022/03/31 07:24:43;;;;;;;7.70;4.85;;;2.90;1.00;;;;;;4995144;28;20315;-77
2022/03/31 07:27:16;;;;;;;8.63;4.85;;;3.10;1.00;;;;;;4990539;28;20294;-77
2022/03/31 07:29:43;;;;;;;6.40;4.60;;;3.40;1.00;;;;;;4985176;28;20252;-77
2022/03/31 07:32:10;;;;;;;6.90;4.55;;;3.50;1.00;;;;;;4975533;28;20646;-77
2022/03/31 07:34:38;;;;;;;7.03;4.85;;;3.40;1.00;;;;;;4966900;28;21441;-78
2022/03/31 07:37:05;;;;;;;5.85;4.60;;;3.60;1.00;;;;;;4978378;28;20327;-79
2022/03/31 07:39:41;;;;;;;5.90;4.72;;;3.60;1.00;;;;;;4973103;28;20232;-78
2022/03/31 07:42:08;;;;;;;5.72;4.70;;;3.80;1.00;;;;;;4968541;28;20744;-78
2022/03/31 07:44:39;;;;;;;8.10;5.65;;;4.10;1.00;;;;;;4969958;28;20225;-78
2022/03/31 07:47:06;;;;;;;10.45;5.20;;;4.40;1.00;;;;;;4970869;28;21392;-79
2022/03/31 07:49:37;;;;;;;7.15;4.90;;;4.40;1.00;;;;;;4977852;28;20307;-78
2022/03/31 07:52:05;;;;;;;5.88;4.75;;;4.60;1.00;;;;;;4967218;28;20240;-79
2022/03/31 07:54:39;;;;;;;10.10;5.82;;;4.70;1.00;;;;;;4967801;28;20317;-78
2022/03/31 07:57:07;;;;;;;13.07;6.03;;;4.70;1.00;;;;;;4969744;28;21157;-80
2022/03/31 07:59:38;;;;;;;7.25;4.75;;;5.00;1.00;;;;;;4977893;28;20236;-79
2022/03/31 08:02:05;;;;;;;6.90;5.10;;;5.10;1.00;;;;;;4971458;28;20260;-79
2022/03/31 08:04:42;;;;;;;12.32;5.00;;;5.10;1.00;;;;;;4970445;28;20291;-78
2022/03/31 08:07:08;;;;;;;8.10;5.53;;;5.10;1.00;;;;;;4969855;28;20248;-78
2022/03/31 08:09:39;;;;;;;5.78;4.38;;;5.20;1.00;;;;;;4971654;28;20240;-76
2022/03/31 08:12:07;;;;;;;5.60;4.75;;;5.30;1.00;;;;;;4968450;28;20255;-76
2022/03/31 08:14:38;;;;;;;6.10;4.35;;;5.40;1.00;;;;;;4966393;28;20345;-77
2022/03/31 08:17:05;;;;;;;8.20;4.80;;;5.50;1.00;;;;;;4964140;28;20256;-78
2022/03/31 08:19:38;;;;;;;11.93;5.13;;;5.70;1.00;;;;;;4969611;28;20239;-77
2022/03/31 08:22:05;;;;;;;5.70;4.80;;;6.10;1.00;;;;;;4963416;28;20360;-78
2022/03/31 08:24:36;;;;;;;12.75;5.65;;;6.20;1.00;;;;;;4960557;28;20240;-77
2022/03/31 08:27:03;;;;;;;6.82;4.65;;;6.10;1.00;;;;;;4967174;28;20263;-77
2022/03/31 08:29:31;;;;;;;9.80;5.00;;;6.30;1.00;;;;;;4973980;28;21238;-78
2022/03/31 08:32:01;;;;;;;7.53;5.35;;;6.50;1.00;;;;;;4960197;28;20339;-76
2022/03/31 08:34:27;;;;;;;10.00;5.57;;;6.60;1.00;;;;;;4966984;28;20240;-77
2022/03/31 08:36:57;;;;;;;8.63;5.50;;;6.80;1.00;;;;;;4965945;28;20236;-77
2022/03/31 08:39:25;;;;;;;5.97;4.70;;;7.00;1.00;;;;;;4966176;28;20241;-79
2022/03/31 08:41:57;;;;;;;11.40;5.95;;;7.10;1.00;;;;;;4974647;28;20244;-78
2022/03/31 08:44:24;;;;;;;7.15;5.30;;;7.00;1.00;;;;;;4972653;28;20247;-79
2022/03/31 08:46:56;;;;;;;8.60;5.47;;;6.90;1.00;;;;;;4979087;28;20244;-79
2022/03/31 08:49:25;;;;;;;8.35;5.32;;;6.70;1.00;;;;;;4973363;28;20252;-77
2022/03/31 08:51:59;;;;;;;10.68;4.95;;;6.90;1.00;;;;;;4971521;28;20236;-77
2022/03/31 08:54:25;;;;;;;8.20;5.40;;;7.00;1.00;;;;;;4968515;28;20303;-79
2022/03/31 08:56:58;;;;;;;5.10;4.55;;;7.10;1.00;;;;;;4967730;28;20236;-79
2022/03/31 08:59:25;;;;;;;6.65;5.50;;;7.30;1.00;;;;;;4969952;28;20346;-78
2022/03/31 09:01:59;;;;;;;6.90;5.15;;;7.40;1.00;;;;;;4968752;28;20270;-77
2022/03/31 09:04:28;;;;;;;7.28;5.45;;;7.20;1.00;;;;;;4965096;28;20228;-76
2022/03/31 09:07:07;;;;;;;6.43;5.65;;;7.20;1.00;;;;;;4973958;28;20245;-77
2022/03/31 09:09:46;;;;;;;6.80;5.82;;;7.20;1.00;;;;;;4969754;28;22060;-78
2022/03/31 09:12:17;;;;;;;9.07;6.22;;;7.30;1.00;;;;;;4967138;28;20220;-76
2022/03/31 09:14:44;;;;;;;8.88;5.05;;;7.60;1.00;;;;;;4965684;28;20296;-78
2022/03/31 09:17:15;;;;;;;7.65;5.90;;;7.70;1.00;;;;;;4978026;28;20239;-77
2022/03/31 09:19:43;;;;;;;6.70;5.78;;;7.70;1.00;;;;;;4978999;28;20476;-79
2022/03/31 09:22:17;;;;;;;9.68;5.10;;;7.80;1.00;;;;;;4990888;28;20240;-77
2022/03/31 09:24:44;;;;;;;8.32;5.80;;;8.10;1.00;;;;;;4985149;28;20246;-78
2022/03/31 09:27:14;;;;;;;7.10;4.83;;;8.70;1.00;;;;;;4981070;28;20240;-79
2022/03/31 09:29:46;;;;;;;6.77;4.70;;;9.40;1.00;;;;;;4974397;28;21117;-79
2022/03/31 09:32:17;;;;;;;7.70;5.40;;;10.20;1.00;;;;;;4981670;28;20456;-79
2022/03/31 09:34:47;;;;;;;8.30;5.53;;;11.20;1.00;;;;;;4977088;28;20460;-79
2022/03/31 09:37:17;;;;;;;8.13;5.57;;;11.70;1.00;;;;;;4977725;28;20440;-79
2022/03/31 09:39:57;;;;;;;8.40;5.73;;;11.40;1.00;;;;;;4975882;28;20484;-80
2022/03/31 09:42:26;;;;;;;7.93;5.97;;;11.40;1.00;;;;;;4979150;28;20507;-79
2022/03/31 09:45:00;;;;;;;9.23;5.50;;;11.50;1.00;;;;;;4970910;28;20477;-79
2022/03/31 09:47:28;;;;;;;10.37;5.30;;;11.90;1.00;;;;;;4978291;28;20458;-79
2022/03/31 09:50:05;;;;;;;8.97;5.47;;;11.80;1.00;;;;;;4972274;28;20458;-78
2022/03/31 09:52:33;;;;;;;6.10;5.20;;;12.20;1.00;;;;;;4976391;28;20433;-80
2022/03/31 09:55:00;;;;;;;9.37;7.00;;;12.70;1.00;;;;;;4981225;28;20467;-80
2022/03/31 09:57:27;;;;;;;11.07;5.47;;;13.50;1.00;;;;;;4977713;28;22022;-79
2022/03/31 10:00:02;;;;;;;12.70;6.53;;;13.60;1.00;;;;;;4979294;28;20443;-80
2022/03/31 10:02:33;;;;;;;7.70;5.73;;;13.80;1.00;;;;;;4982171;28;20483;-80
2022/03/31 10:05:04;;;;;;;9.27;5.67;;;13.60;1.00;;;;;;4983608;28;20442;-78
2022/03/31 10:07:33;;;;;;;6.40;5.50;;;13.90;1.00;;;;;;4989162;28;20531;-81
2022/03/31 10:10:00;;;;;;;6.27;5.60;;;14.40;1.00;;;;;;4992454;28;21494;-79
2022/03/31 10:12:40;;;;;;;7.60;5.80;;;14.70;1.00;;;;;;4993042;28;20488;-79
2022/03/31 10:15:10;;;;;;;13.50;6.30;;;14.50;1.00;;;;;;4994499;28;20439;-79
2022/03/31 10:17:46;;;;;;;7.20;5.50;;;14.40;1.00;;;;;;4990744;28;20487;-80
2022/03/31 10:20:20;;;;;;;13.03;6.20;;;15.00;1.00;;;;;;4982281;28;20429;-79
2022/03/31 10:25:44;;;;;;;9.47;5.53;;;15.90;1.00;;;;;;4985148;28;20417;-79
2022/03/31 10:28:13;;;;;;;6.77;6.07;;;16.50;1.00;;;;;;4988913;28;20436;-80
2022/03/31 10:30:43;;;;;;;29.27;25.73;;;16.60;1.00;;;;;;4997717;28;20444;-80
2022/03/31 10:33:11;;;;;;;7.57;6.20;;;16.60;1.00;;;;;;4992412;28;20461;-80
2022/03/31 10:35:42;;;;;;;8.87;6.60;;;15.80;1.00;;;;;;4988226;28;20505;-77
2022/03/31 10:38:19;;;;;;;9.77;6.07;;;15.10;1.00;;;;;;4984550;28;20432;-81
2022/03/31 10:40:51;;;;;;;9.20;5.47;;;15.60;1.00;;;;;;4986374;28;20523;-79
2022/03/31 10:43:24;;;;;;;7.60;6.50;;;14.90;1.00;;;;;;4996137;28;20433;-79
2022/03/31 10:45:54;;;;;;;9.73;6.07;;;15.00;1.00;;;;;;4995509;28;20457;-79
2022/03/31 10:48:42;;;;;;;6.90;5.33;;;15.60;1.00;;;;;;4980593;28;20420;-78
2022/03/31 10:51:14;;;;;;;12.37;5.70;;;16.10;1.00;;;;;;4986616;28;20527;-79
2022/03/31 10:53:48;;;;;;;7.47;6.73;;;16.50;1.00;;;;;;4987959;28;20481;-78
2022/03/31 10:56:20;;;;;;;10.33;6.50;;;16.10;1.00;;;;;;4992928;28;20438;-80
2022/03/31 10:58:47;;;;;;;10.13;6.30;;;16.40;1.00;;;;;;4992314;28;20500;-81
2022/03/31 11:01:14;;;;;;;6.40;5.70;;;16.80;1.00;;;;;;4987742;28;20519;-78
2022/03/31 11:06:31;;;;;;;7.00;5.27;;;17.40;1.00;;;;;;4986007;28;20460;-79
2022/03/31 11:08:58;;;;;;;8.87;5.67;;;18.30;1.00;;;;;;4985456;28;21078;-78
2022/03/31 11:11:28;;;;;;;6.80;5.60;;;17.60;1.00;;;;;;4985908;28;20471;-78
2022/03/31 11:13:58;;;;;;;6.83;5.70;;;16.90;1.00;;;;;;4983668;28;20417;-82
2022/03/31 11:16:46;;;;;;;6.60;5.63;;;16.50;1.00;;;;;;4990471;28;20416;-81
2022/03/31 11:19:20;;;;;;;12.30;5.70;;;16.50;1.00;;;;;;4978121;28;20459;-80
2022/03/31 11:21:49;;;;;;;6.07;4.90;;;16.10;1.00;;;;;;4976593;28;20423;-82
2022/03/31 11:24:38;;;;;;;9.63;6.80;;;15.00;1.00;;;;;;4964273;28;20497;-79
2022/03/31 11:27:10;;;;;;;10.53;7.77;;;14.10;1.00;;;;;;4962910;28;20435;-78
2022/03/31 11:29:40;;;;;;;8.37;5.70;;;13.70;1.00;;;;;;4959604;28;20431;-79
2022/03/31 11:32:10;;;;;;;8.67;6.00;;;13.60;1.00;;;;;;4963208;28;20459;-78
2022/03/31 11:34:50;;;;;;;8.80;6.17;;;13.40;1.00;;;;;;4968039;28;20428;-79
2022/03/31 11:37:19;;;;;;;7.87;5.87;;;13.10;1.00;;;;;;4958382;28;20432;-80
2022/03/31 11:39:49;;;;;;;9.67;5.70;;;12.70;1.00;;;;;;4962526;28;20440;-78
2022/03/31 11:42:21;;;;;;;8.83;6.40;;;12.70;1.00;;;;;;4976538;28;20453;-81
2022/03/31 11:44:48;;;;;;;7.40;5.70;;;12.70;1.00;;;;;;4961907;28;20551;-79
2022/03/31 11:47:20;;;;;;;8.70;5.90;;;13.20;1.00;;;;;;4974067;28;20468;-79
2022/03/31 11:50:03;;;;;;;8.37;6.73;;;13.40;1.00;;;;;;4970211;28;20464;-81
2022/03/31 11:52:43;;;;;;;10.97;7.17;;;14.20;1.00;;;;;;4966285;28;20485;-81
2022/03/31 11:55:20;;;;;;;7.47;6.77;;;15.20;1.00;;;;;;4968705;28;20489;-78
2022/03/31 11:58:08;;;;;;;10.70;7.47;;;15.30;1.00;;;;;;4970974;28;20471;-79
2022/03/31 12:00:50;;;;;;;8.00;5.70;;;15.60;1.00;;;;;;4966308;28;20496;-80
2022/03/31 12:03:19;;;;;;;7.87;5.70;;;15.40;1.00;;;;;;4973788;28;20483;-78
2022/03/31 12:05:58;;;;;;;8.30;6.23;;;16.10;1.00;;;;;;4968985;28;21356;-79
2022/03/31 12:08:27;;;;;;;7.33;5.80;;;15.90;1.00;;;;;;4973873;28;20456;-80
2022/03/31 12:10:59;;;;;;;6.60;5.90;;;15.40;1.00;;;;;;4943833;28;20421;-78
2022/03/31 12:13:28;;;;;;;10.30;6.87;;;14.90;1.00;;;;;;4966820;28;20575;-80
2022/03/31 12:16:08;;;;;;;16.77;6.40;;;14.00;1.00;;;;;;4975331;28;20492;-80
2022/03/31 12:18:40;;;;;;;7.10;6.40;;;13.20;1.00;;;;;;4968986;28;20445;-78
2022/03/31 12:21:08;;;;;;;8.57;6.23;;;12.90;1.00;;;;;;4970823;28;20547;-79
2022/03/31 12:23:46;;;;;;;8.37;5.70;;;12.50;1.00;;;;;;4960800;28;21252;-80
2022/03/31 12:26:23;;;;;;;10.57;7.03;;;12.60;1.00;;;;;;4966827;28;20666;-81
2022/03/31 12:28:51;;;;;;;21.57;9.80;;;12.90;1.00;;;;;;4967143;28;20477;-81
2022/03/31 12:31:28;;;;;;;12.40;6.70;;;12.90;1.00;;;;;;4961195;28;20448;-79
2022/03/31 12:33:59;;;;;;;9.27;6.07;;;11.90;1.00;;;;;;4982243;28;20467;-78
2022/03/31 12:36:29;;;;;;;10.27;7.00;;;11.30;1.00;;;;;;4987455;28;20452;-79
2022/03/31 12:38:57;;;;;;;8.87;6.33;;;10.80;1.00;;;;;;4981114;28;20445;-79
2022/03/31 12:41:29;;;;;;;7.57;6.63;;;10.70;1.00;;;;;;4972434;28;20473;-79
2022/03/31 12:44:06;;;;;;;7.30;6.13;;;11.10;1.00;;;;;;4971817;28;20523;-79
2022/03/31 12:46:38;;;;;;;10.80;6.37;;;11.90;1.00;;;;;;4964558;28;20503;-79
2022/03/31 12:49:07;;;;;;;9.37;6.10;;;12.60;1.00;;;;;;4952227;28;20436;-80
2022/03/31 12:51:46;;;;;;;8.23;6.47;;;13.90;1.00;;;;;;4963981;28;23670;-80
2022/03/31 12:54:26;;;;;;;8.90;5.80;;;14.70;1.00;;;;;;4970330;28;20468;-79
2022/03/31 12:57:00;;;;;;;9.00;5.97;;;14.80;1.00;;;;;;4969363;28;20456;-80
2022/03/31 12:59:30;;;;;;;7.70;5.83;;;14.50;1.00;;;;;;4971769;28;21389;-80
2022/03/31 13:02:06;;;;;;;5.90;5.30;;;14.30;1.00;;;;;;4962268;28;20448;-80
2022/03/31 13:04:35;;;;;;;6.67;5.37;;;13.90;1.00;;;;;;4959397;28;20482;-79
2022/03/31 13:07:04;;;;;;;6.70;5.93;;;13.30;1.00;;;;;;4962790;28;20531;-79
2022/03/31 13:09:37;;;;;;;7.90;5.53;;;12.60;1.00;;;;;;4964896;28;20472;-78
2022/03/31 13:12:09;;;;;;;13.53;6.50;;;12.20;1.00;;;;;;4964531;28;20639;-80
2022/03/31 13:14:36;;;;;;;7.27;5.67;;;12.50;1.00;;;;;;4968417;28;20490;-79
2022/03/31 13:17:07;;;;;;;6.10;5.20;;;12.90;1.00;;;;;;4974214;28;20432;-80
2022/03/31 13:19:38;;;;;;;5.90;5.23;;;12.90;1.00;;;;;;4960589;28;20436;-79
2022/03/31 13:22:08;;;;;;;7.03;5.63;;;12.70;1.00;;;;;;4971597;28;20440;-79
2022/03/31 13:24:41;;;;;;;7.80;5.43;;;12.50;1.00;;;;;;4970583;28;20432;-79
2022/03/31 13:27:08;;;;;;;6.07;5.17;;;12.60;1.00;;;;;;4969994;28;21166;-80
2022/03/31 13:29:38;;;;;;;6.93;4.67;;;12.50;1.00;;;;;;4968992;28;20439;-80
2022/03/31 13:32:07;;;;;;;6.97;4.60;;;12.50;1.00;;;;;;4975246;28;20433;-81
2022/03/31 13:34:40;;;;;;;7.50;4.90;;;12.10;1.00;;;;;;4969636;28;20491;-78
2022/03/31 13:37:09;;;;;;;7.40;5.10;;;11.70;1.00;;;;;;4970617;28;20471;-80
2022/03/31 13:39:41;;;;;;;7.40;5.20;;;11.60;1.00;;;;;;4974683;28;20484;-79
2022/03/31 13:42:09;;;;;;;7.20;5.53;;;11.30;1.00;;;;;;4978727;28;20448;-79